sensor_id;sensor_type;location;lat;lon;timestamp;P1;durP1;ratioP1;P2;durP2;ratioP2
12212;SDS011;6169;44.158;22.788;2022-12-10T00:02:29;57.28;;;23.55;;
12212;SDS011;6169;44.158;22.788;2022-12-10T00:07:32;76.65;;;23.98;;
12212;SDS011;6169;44.158;22.788;2022-12-10T00:12:34;76.18;;;25.58;;
12212;SDS011;6169;44.158;22.788;2022-12-10T00:17:37;66.72;;;22.42;;
12212;SDS011;6169;44.158;22.788;2022-12-10T00:22:39;47.13;;;20.20;;
12212;SDS011;6169;44.158;22.788;2022-12-10T00:27:42;61.35;;;23.05;;
12212;SDS011;6169;44.158;22.788;2022-12-10T00:32:45;67.55;;;21.77;;
12212;SDS011;6169;44.158;22.788;2022-12-10T00:37:48;54.25;;;18.67;;
12212;SDS011;6169;44.158;22.788;2022-12-10T00:42:50;59.30;;;21.90;;
12212;SDS011;6169;44.158;22.788;2022-12-10T00:47:53;55.55;;;22.45;;
12212;SDS011;6169;44.158;22.788;2022-12-10T00:52:56;57.35;;;20.77;;
12212;SDS011;6169;44.158;22.788;2022-12-10T00:57:58;73.03;;;24.92;;
12212;SDS011;6169;44.158;22.788;2022-12-10T01:03:01;76.53;;;22.73;;
12212;SDS011;6169;44.158;22.788;2022-12-10T01:08:04;62.38;;;20.90;;
12212;SDS011;6169;44.158;22.788;2022-12-10T01:13:06;76.25;;;25.60;;
12212;SDS011;6169;44.158;22.788;2022-12-10T01:18:10;80.85;;;28.38;;
12212;SDS011;6169;44.158;22.788;2022-12-10T01:23:12;81.63;;;25.05;;
12212;SDS011;6169;44.158;22.788;2022-12-10T01:28:14;80.57;;;23.27;;
12212;SDS011;6169;44.158;22.788;2022-12-10T01:33:18;75.47;;;23.67;;
12212;SDS011;6169;44.158;22.788;2022-12-10T01:38:20;80.80;;;25.45;;
12212;SDS011;6169;44.158;22.788;2022-12-10T01:43:22;82.05;;;26.88;;
12212;SDS011;6169;44.158;22.788;2022-12-10T01:48:26;87.13;;;24.90;;
12212;SDS011;6169;44.158;22.788;2022-12-10T01:53:28;80.10;;;23.90;;
12212;SDS011;6169;44.158;22.788;2022-12-10T01:58:30;98.03;;;25.08;;
12212;SDS011;6169;44.158;22.788;2022-12-10T02:03:37;64.82;;;21.60;;
12212;SDS011;6169;44.158;22.788;2022-12-10T02:08:48;77.90;;;25.50;;
12212;SDS011;6169;44.158;22.788;2022-12-10T02:13:59;73.40;;;24.00;;
12212;SDS011;6169;44.158;22.788;2022-12-10T02:19:09;57.63;;;23.98;;
12212;SDS011;6169;44.158;22.788;2022-12-10T02:24:21;80.60;;;23.10;;
12212;SDS011;6169;44.158;22.788;2022-12-10T02:29:30;104.27;;;22.90;;
12212;SDS011;6169;44.158;22.788;2022-12-10T02:34:34;62.08;;;21.27;;
12212;SDS011;6169;44.158;22.788;2022-12-10T02:39:40;82.85;;;22.92;;
12212;SDS011;6169;44.158;22.788;2022-12-10T02:44:48;88.47;;;23.02;;
12212;SDS011;6169;44.158;22.788;2022-12-10T02:49:52;65.72;;;20.20;;
12212;SDS011;6169;44.158;22.788;2022-12-10T02:54:57;96.80;;;22.65;;
12212;SDS011;6169;44.158;22.788;2022-12-10T03:00:08;80.10;;;23.02;;
12212;SDS011;6169;44.158;22.788;2022-12-10T03:05:18;72.32;;;21.85;;
12212;SDS011;6169;44.158;22.788;2022-12-10T03:10:26;59.17;;;19.60;;
12212;SDS011;6169;44.158;22.788;2022-12-10T03:15:35;65.47;;;19.88;;
12212;SDS011;6169;44.158;22.788;2022-12-10T03:20:41;53.55;;;21.48;;
12212;SDS011;6169;44.158;22.788;2022-12-10T03:25:46;59.67;;;22.42;;
12212;SDS011;6169;44.158;22.788;2022-12-10T03:30:51;63.30;;;25.85;;
12212;SDS011;6169;44.158;22.788;2022-12-10T03:35:56;65.10;;;24.60;;
12212;SDS011;6169;44.158;22.788;2022-12-10T03:40:59;45.63;;;18.45;;
12212;SDS011;6169;44.158;22.788;2022-12-10T03:46:02;51.85;;;20.30;;
12212;SDS011;6169;44.158;22.788;2022-12-10T03:51:05;43.47;;;18.63;;
12212;SDS011;6169;44.158;22.788;2022-12-10T03:56:07;48.47;;;18.15;;
12212;SDS011;6169;44.158;22.788;2022-12-10T04:01:11;55.90;;;20.48;;
12212;SDS011;6169;44.158;22.788;2022-12-10T04:06:14;51.13;;;18.25;;
12212;SDS011;6169;44.158;22.788;2022-12-10T04:11:17;57.05;;;21.40;;
12212;SDS011;6169;44.158;22.788;2022-12-10T04:16:21;62.78;;;24.95;;
12212;SDS011;6169;44.158;22.788;2022-12-10T04:21:30;51.28;;;21.08;;
12212;SDS011;6169;44.158;22.788;2022-12-10T04:26:51;49.55;;;23.77;;
12212;SDS011;6169;44.158;22.788;2022-12-10T04:31:55;45.60;;;21.02;;
12212;SDS011;6169;44.158;22.788;2022-12-10T04:36:58;48.25;;;19.85;;
12212;SDS011;6169;44.158;22.788;2022-12-10T04:42:02;52.58;;;21.95;;
12212;SDS011;6169;44.158;22.788;2022-12-10T04:47:07;49.13;;;20.55;;
12212;SDS011;6169;44.158;22.788;2022-12-10T04:52:10;51.85;;;21.67;;
12212;SDS011;6169;44.158;22.788;2022-12-10T04:57:13;58.00;;;23.35;;
12212;SDS011;6169;44.158;22.788;2022-12-10T05:02:17;50.40;;;21.63;;
12212;SDS011;6169;44.158;22.788;2022-12-10T05:07:19;48.22;;;20.83;;
12212;SDS011;6169;44.158;22.788;2022-12-10T05:12:21;47.85;;;22.40;;
12212;SDS011;6169;44.158;22.788;2022-12-10T05:17:25;48.70;;;22.52;;
12212;SDS011;6169;44.158;22.788;2022-12-10T05:22:27;57.53;;;23.88;;
12212;SDS011;6169;44.158;22.788;2022-12-10T05:27:47;61.38;;;25.25;;
12212;SDS011;6169;44.158;22.788;2022-12-10T05:32:50;59.75;;;23.00;;
12212;SDS011;6169;44.158;22.788;2022-12-10T05:37:52;66.88;;;26.25;;
12212;SDS011;6169;44.158;22.788;2022-12-10T05:42:54;70.10;;;28.20;;
12212;SDS011;6169;44.158;22.788;2022-12-10T05:47:59;66.00;;;25.83;;
12212;SDS011;6169;44.158;22.788;2022-12-10T05:53:02;106.22;;;42.95;;
12212;SDS011;6169;44.158;22.788;2022-12-10T05:58:04;84.90;;;32.80;;
12212;SDS011;6169;44.158;22.788;2022-12-10T06:03:08;72.50;;;28.50;;
12212;SDS011;6169;44.158;22.788;2022-12-10T06:08:10;60.10;;;22.75;;
12212;SDS011;6169;44.158;22.788;2022-12-10T06:13:12;55.17;;;22.13;;
12212;SDS011;6169;44.158;22.788;2022-12-10T06:18:16;66.05;;;24.83;;
12212;SDS011;6169;44.158;22.788;2022-12-10T06:23:18;64.15;;;24.17;;
12212;SDS011;6169;44.158;22.788;2022-12-10T06:28:20;64.88;;;26.27;;
12212;SDS011;6169;44.158;22.788;2022-12-10T06:33:24;63.38;;;26.67;;
12212;SDS011;6169;44.158;22.788;2022-12-10T06:38:26;67.15;;;29.35;;
12212;SDS011;6169;44.158;22.788;2022-12-10T06:43:28;62.10;;;29.05;;
12212;SDS011;6169;44.158;22.788;2022-12-10T06:48:32;59.25;;;26.80;;
12212;SDS011;6169;44.158;22.788;2022-12-10T06:53:36;52.63;;;25.27;;
12212;SDS011;6169;44.158;22.788;2022-12-10T06:58:39;52.72;;;24.25;;
12212;SDS011;6169;44.158;22.788;2022-12-10T07:03:43;48.17;;;22.52;;
12212;SDS011;6169;44.158;22.788;2022-12-10T07:08:48;47.88;;;24.13;;
12212;SDS011;6169;44.158;22.788;2022-12-10T07:13:51;48.22;;;23.73;;
12212;SDS011;6169;44.158;22.788;2022-12-10T07:18:56;52.67;;;23.40;;
12212;SDS011;6169;44.158;22.788;2022-12-10T07:24:01;48.97;;;21.63;;
12212;SDS011;6169;44.158;22.788;2022-12-10T07:29:06;48.47;;;25.05;;
12212;SDS011;6169;44.158;22.788;2022-12-10T07:34:12;41.75;;;22.30;;
12212;SDS011;6169;44.158;22.788;2022-12-10T07:39:15;37.95;;;21.52;;
12212;SDS011;6169;44.158;22.788;2022-12-10T07:44:18;47.95;;;24.83;;
12212;SDS011;6169;44.158;22.788;2022-12-10T07:49:23;45.75;;;24.75;;
12212;SDS011;6169;44.158;22.788;2022-12-10T07:54:25;48.75;;;24.27;;
12212;SDS011;6169;44.158;22.788;2022-12-10T07:59:27;74.07;;;42.25;;
12212;SDS011;6169;44.158;22.788;2022-12-10T08:04:31;43.00;;;24.48;;
12212;SDS011;6169;44.158;22.788;2022-12-10T08:09:34;52.35;;;26.48;;
12212;SDS011;6169;44.158;22.788;2022-12-10T08:14:36;65.93;;;42.00;;
12212;SDS011;6169;44.158;22.788;2022-12-10T08:19:40;44.50;;;27.85;;
12212;SDS011;6169;44.158;22.788;2022-12-10T08:24:42;35.42;;;20.17;;
12212;SDS011;6169;44.158;22.788;2022-12-10T08:29:44;33.58;;;18.15;;
12212;SDS011;6169;44.158;22.788;2022-12-10T08:34:48;41.85;;;26.77;;
12212;SDS011;6169;44.158;22.788;2022-12-10T08:39:50;38.90;;;21.88;;
12212;SDS011;6169;44.158;22.788;2022-12-10T08:44:52;40.97;;;23.08;;
12212;SDS011;6169;44.158;22.788;2022-12-10T08:49:56;42.38;;;21.23;;
12212;SDS011;6169;44.158;22.788;2022-12-10T08:54:58;36.90;;;20.92;;
12212;SDS011;6169;44.158;22.788;2022-12-10T09:00:00;39.90;;;21.30;;
12212;SDS011;6169;44.158;22.788;2022-12-10T09:05:04;36.92;;;23.65;;
12212;SDS011;6169;44.158;22.788;2022-12-10T09:10:08;32.03;;;17.25;;
12212;SDS011;6169;44.158;22.788;2022-12-10T09:15:11;29.85;;;18.67;;
12212;SDS011;6169;44.158;22.788;2022-12-10T09:20:15;36.00;;;20.52;;
12212;SDS011;6169;44.158;22.788;2022-12-10T09:25:17;36.05;;;21.85;;
12212;SDS011;6169;44.158;22.788;2022-12-10T09:30:21;34.00;;;18.58;;
12212;SDS011;6169;44.158;22.788;2022-12-10T09:35:25;35.67;;;22.08;;
12212;SDS011;6169;44.158;22.788;2022-12-10T09:40:30;37.58;;;22.30;;
12212;SDS011;6169;44.158;22.788;2022-12-10T09:45:43;35.63;;;19.17;;
12212;SDS011;6169;44.158;22.788;2022-12-10T09:50:57;31.23;;;18.17;;
12212;SDS011;6169;44.158;22.788;2022-12-10T09:56:06;34.78;;;21.15;;
12212;SDS011;6169;44.158;22.788;2022-12-10T10:01:19;32.95;;;19.27;;
12212;SDS011;6169;44.158;22.788;2022-12-10T10:06:26;33.97;;;20.02;;
12212;SDS011;6169;44.158;22.788;2022-12-10T10:11:31;31.38;;;18.23;;
12212;SDS011;6169;44.158;22.788;2022-12-10T10:16:35;36.50;;;20.67;;
12212;SDS011;6169;44.158;22.788;2022-12-10T10:21:44;35.42;;;20.30;;
12212;SDS011;6169;44.158;22.788;2022-12-10T10:26:49;37.22;;;23.08;;
12212;SDS011;6169;44.158;22.788;2022-12-10T10:37:18;37.65;;;21.00;;
12212;SDS011;6169;44.158;22.788;2022-12-10T10:42:34;54.60;;;27.90;;
12212;SDS011;6169;44.158;22.788;2022-12-10T10:47:38;26.05;;;16.58;;
12212;SDS011;6169;44.158;22.788;2022-12-10T10:52:41;28.02;;;17.27;;
12212;SDS011;6169;44.158;22.788;2022-12-10T10:57:44;25.67;;;17.17;;
12212;SDS011;6169;44.158;22.788;2022-12-10T11:02:46;33.78;;;21.67;;
12212;SDS011;6169;44.158;22.788;2022-12-10T11:07:50;27.73;;;16.52;;
12212;SDS011;6169;44.158;22.788;2022-12-10T11:13:03;24.20;;;16.42;;
12212;SDS011;6169;44.158;22.788;2022-12-10T11:18:20;25.60;;;17.50;;
12212;SDS011;6169;44.158;22.788;2022-12-10T11:23:29;38.75;;;25.67;;
12212;SDS011;6169;44.158;22.788;2022-12-10T11:28:35;29.65;;;19.38;;
12212;SDS011;6169;44.158;22.788;2022-12-10T11:33:49;37.17;;;22.30;;
12212;SDS011;6169;44.158;22.788;2022-12-10T11:39:01;33.90;;;22.98;;
12212;SDS011;6169;44.158;22.788;2022-12-10T11:44:16;58.60;;;40.75;;
12212;SDS011;6169;44.158;22.788;2022-12-10T11:49:28;39.97;;;26.55;;
12212;SDS011;6169;44.158;22.788;2022-12-10T12:00:05;31.80;;;19.67;;
12212;SDS011;6169;44.158;22.788;2022-12-10T12:05:24;29.60;;;19.52;;
12212;SDS011;6169;44.158;22.788;2022-12-10T12:16:08;33.92;;;20.45;;
12212;SDS011;6169;44.158;22.788;2022-12-10T12:21:14;31.35;;;19.15;;
12212;SDS011;6169;44.158;22.788;2022-12-10T12:26:21;29.17;;;19.92;;
12212;SDS011;6169;44.158;22.788;2022-12-10T12:31:30;32.20;;;20.70;;
12212;SDS011;6169;44.158;22.788;2022-12-10T12:36:36;32.35;;;21.52;;
12212;SDS011;6169;44.158;22.788;2022-12-10T12:41:41;39.97;;;23.98;;
12212;SDS011;6169;44.158;22.788;2022-12-10T12:46:50;32.05;;;21.08;;
12212;SDS011;6169;44.158;22.788;2022-12-10T12:51:53;32.38;;;20.88;;
12212;SDS011;6169;44.158;22.788;2022-12-10T12:57:05;37.95;;;21.70;;
12212;SDS011;6169;44.158;22.788;2022-12-10T13:02:18;42.17;;;25.02;;
12212;SDS011;6169;44.158;22.788;2022-12-10T13:07:29;39.53;;;23.33;;
12212;SDS011;6169;44.158;22.788;2022-12-10T13:12:46;38.88;;;23.58;;
12212;SDS011;6169;44.158;22.788;2022-12-10T13:18:01;43.75;;;24.17;;
12212;SDS011;6169;44.158;22.788;2022-12-10T13:23:27;43.05;;;26.13;;
12212;SDS011;6169;44.158;22.788;2022-12-10T13:28:48;47.83;;;27.05;;
12212;SDS011;6169;44.158;22.788;2022-12-10T13:33:52;44.22;;;25.05;;
12212;SDS011;6169;44.158;22.788;2022-12-10T13:39:13;34.78;;;22.83;;
12212;SDS011;6169;44.158;22.788;2022-12-10T13:44:36;39.42;;;23.92;;
12212;SDS011;6169;44.158;22.788;2022-12-10T13:49:48;37.45;;;23.23;;
12212;SDS011;6169;44.158;22.788;2022-12-10T13:54:58;39.15;;;23.13;;
12212;SDS011;6169;44.158;22.788;2022-12-10T14:00:12;41.53;;;25.02;;
12212;SDS011;6169;44.158;22.788;2022-12-10T14:05:22;40.28;;;23.23;;
12212;SDS011;6169;44.158;22.788;2022-12-10T14:10:31;52.92;;;32.03;;
12212;SDS011;6169;44.158;22.788;2022-12-10T14:15:37;42.88;;;25.60;;
12212;SDS011;6169;44.158;22.788;2022-12-10T14:20:40;41.10;;;23.50;;
12212;SDS011;6169;44.158;22.788;2022-12-10T14:25:47;45.83;;;27.80;;
12212;SDS011;6169;44.158;22.788;2022-12-10T14:30:51;42.78;;;24.83;;
12212;SDS011;6169;44.158;22.788;2022-12-10T14:35:53;33.05;;;21.30;;
12212;SDS011;6169;44.158;22.788;2022-12-10T14:40:55;31.88;;;21.17;;
12212;SDS011;6169;44.158;22.788;2022-12-10T14:45:59;36.90;;;23.23;;
12212;SDS011;6169;44.158;22.788;2022-12-10T14:51:04;38.40;;;22.70;;
12212;SDS011;6169;44.158;22.788;2022-12-10T14:56:14;34.28;;;21.90;;
12212;SDS011;6169;44.158;22.788;2022-12-10T15:01:22;48.28;;;32.97;;
12212;SDS011;6169;44.158;22.788;2022-12-10T15:06:32;41.93;;;27.30;;
12212;SDS011;6169;44.158;22.788;2022-12-10T15:11:36;41.58;;;26.63;;
12212;SDS011;6169;44.158;22.788;2022-12-10T15:16:40;43.78;;;27.33;;
12212;SDS011;6169;44.158;22.788;2022-12-10T15:21:44;46.30;;;27.90;;
12212;SDS011;6169;44.158;22.788;2022-12-10T15:26:48;39.30;;;24.95;;
12212;SDS011;6169;44.158;22.788;2022-12-10T15:31:55;54.75;;;34.92;;
12212;SDS011;6169;44.158;22.788;2022-12-10T15:37:00;54.33;;;35.38;;
12212;SDS011;6169;44.158;22.788;2022-12-10T15:42:04;63.40;;;36.28;;
12212;SDS011;6169;44.158;22.788;2022-12-10T15:47:11;65.85;;;40.45;;
12212;SDS011;6169;44.158;22.788;2022-12-10T15:52:18;53.85;;;34.55;;
12212;SDS011;6169;44.158;22.788;2022-12-10T15:57:23;48.60;;;30.45;;
12212;SDS011;6169;44.158;22.788;2022-12-10T16:02:30;49.47;;;32.40;;
12212;SDS011;6169;44.158;22.788;2022-12-10T16:07:37;43.92;;;28.10;;
12212;SDS011;6169;44.158;22.788;2022-12-10T16:12:40;49.70;;;30.05;;
12212;SDS011;6169;44.158;22.788;2022-12-10T16:17:45;50.72;;;31.13;;
12212;SDS011;6169;44.158;22.788;2022-12-10T16:22:47;62.85;;;38.72;;
12212;SDS011;6169;44.158;22.788;2022-12-10T16:27:50;65.80;;;41.97;;
12212;SDS011;6169;44.158;22.788;2022-12-10T16:32:54;47.67;;;27.83;;
12212;SDS011;6169;44.158;22.788;2022-12-10T16:37:56;53.63;;;35.28;;
12212;SDS011;6169;44.158;22.788;2022-12-10T16:42:58;54.67;;;33.85;;
12212;SDS011;6169;44.158;22.788;2022-12-10T16:48:02;59.92;;;36.35;;
12212;SDS011;6169;44.158;22.788;2022-12-10T16:53:06;66.55;;;41.13;;
12212;SDS011;6169;44.158;22.788;2022-12-10T16:58:16;50.75;;;31.35;;
12212;SDS011;6169;44.158;22.788;2022-12-10T17:03:21;36.67;;;24.20;;
12212;SDS011;6169;44.158;22.788;2022-12-10T17:08:28;271.02;;;134.38;;
12212;SDS011;6169;44.158;22.788;2022-12-10T17:13:31;37.75;;;23.35;;
12212;SDS011;6169;44.158;22.788;2022-12-10T17:18:36;48.05;;;31.42;;
12212;SDS011;6169;44.158;22.788;2022-12-10T17:23:38;55.72;;;33.78;;
12212;SDS011;6169;44.158;22.788;2022-12-10T17:28:40;64.28;;;38.33;;
12212;SDS011;6169;44.158;22.788;2022-12-10T17:33:44;71.07;;;46.90;;
12212;SDS011;6169;44.158;22.788;2022-12-10T17:38:46;72.57;;;45.95;;
12212;SDS011;6169;44.158;22.788;2022-12-10T17:43:48;79.28;;;47.67;;
12212;SDS011;6169;44.158;22.788;2022-12-10T17:48:52;117.18;;;65.95;;
12212;SDS011;6169;44.158;22.788;2022-12-10T17:53:54;266.27;;;145.50;;
12212;SDS011;6169;44.158;22.788;2022-12-10T17:58:56;301.05;;;170.07;;
12212;SDS011;6169;44.158;22.788;2022-12-10T18:04:00;287.60;;;174.90;;
12212;SDS011;6169;44.158;22.788;2022-12-10T18:09:02;124.45;;;75.03;;
12212;SDS011;6169;44.158;22.788;2022-12-10T18:14:05;114.18;;;56.90;;
12212;SDS011;6169;44.158;22.788;2022-12-10T18:19:12;136.40;;;76.95;;
12212;SDS011;6169;44.158;22.788;2022-12-10T18:24:15;92.70;;;40.53;;
12212;SDS011;6169;44.158;22.788;2022-12-10T18:29:18;99.28;;;42.05;;
12212;SDS011;6169;44.158;22.788;2022-12-10T18:34:22;87.43;;;40.63;;
12212;SDS011;6169;44.158;22.788;2022-12-10T18:39:27;101.63;;;40.17;;
12212;SDS011;6169;44.158;22.788;2022-12-10T18:44:33;96.65;;;41.72;;
12212;SDS011;6169;44.158;22.788;2022-12-10T18:49:37;92.22;;;42.53;;
12212;SDS011;6169;44.158;22.788;2022-12-10T18:54:40;97.68;;;43.00;;
12212;SDS011;6169;44.158;22.788;2022-12-10T18:59:42;101.63;;;43.80;;
12212;SDS011;6169;44.158;22.788;2022-12-10T19:04:46;107.43;;;46.90;;
12212;SDS011;6169;44.158;22.788;2022-12-10T19:09:48;85.90;;;40.47;;
12212;SDS011;6169;44.158;22.788;2022-12-10T19:14:51;101.15;;;44.00;;
12212;SDS011;6169;44.158;22.788;2022-12-10T19:19:55;89.25;;;45.17;;
12212;SDS011;6169;44.158;22.788;2022-12-10T19:24:57;87.10;;;42.72;;
12212;SDS011;6169;44.158;22.788;2022-12-10T19:30:00;58.55;;;29.58;;
12212;SDS011;6169;44.158;22.788;2022-12-10T19:35:04;86.85;;;39.28;;
12212;SDS011;6169;44.158;22.788;2022-12-10T19:40:09;187.77;;;65.13;;
12212;SDS011;6169;44.158;22.788;2022-12-10T19:45:18;131.73;;;46.97;;
12212;SDS011;6169;44.158;22.788;2022-12-10T19:50:23;71.30;;;37.25;;
12212;SDS011;6169;44.158;22.788;2022-12-10T19:55:27;127.65;;;42.17;;
12212;SDS011;6169;44.158;22.788;2022-12-10T20:00:30;95.43;;;54.13;;
12212;SDS011;6169;44.158;22.788;2022-12-10T20:05:34;258.08;;;161.80;;
12212;SDS011;6169;44.158;22.788;2022-12-10T20:10:36;81.88;;;41.83;;
12212;SDS011;6169;44.158;22.788;2022-12-10T20:15:39;68.57;;;36.05;;
12212;SDS011;6169;44.158;22.788;2022-12-10T20:20:42;62.03;;;33.45;;
12212;SDS011;6169;44.158;22.788;2022-12-10T20:25:45;62.15;;;31.67;;
12212;SDS011;6169;44.158;22.788;2022-12-10T20:30:49;69.03;;;35.47;;
12212;SDS011;6169;44.158;22.788;2022-12-10T20:35:53;81.90;;;39.58;;
12212;SDS011;6169;44.158;22.788;2022-12-10T20:40:56;84.05;;;44.65;;
12212;SDS011;6169;44.158;22.788;2022-12-10T20:45:58;81.68;;;40.17;;
12212;SDS011;6169;44.158;22.788;2022-12-10T20:51:01;77.68;;;45.88;;
12212;SDS011;6169;44.158;22.788;2022-12-10T20:56:05;59.92;;;33.00;;
12212;SDS011;6169;44.158;22.788;2022-12-10T21:01:11;51.25;;;30.05;;
12212;SDS011;6169;44.158;22.788;2022-12-10T21:06:15;43.80;;;25.05;;
12212;SDS011;6169;44.158;22.788;2022-12-10T21:11:20;44.92;;;26.52;;
12212;SDS011;6169;44.158;22.788;2022-12-10T21:16:22;44.28;;;25.60;;
12212;SDS011;6169;44.158;22.788;2022-12-10T21:21:27;47.78;;;25.83;;
12212;SDS011;6169;44.158;22.788;2022-12-10T21:26:29;44.72;;;25.02;;
12212;SDS011;6169;44.158;22.788;2022-12-10T21:31:31;42.08;;;22.67;;
12212;SDS011;6169;44.158;22.788;2022-12-10T21:36:35;54.97;;;33.58;;
12212;SDS011;6169;44.158;22.788;2022-12-10T21:41:37;40.75;;;25.02;;
12212;SDS011;6169;44.158;22.788;2022-12-10T21:46:57;32.10;;;20.30;;
12212;SDS011;6169;44.158;22.788;2022-12-10T21:52:00;41.22;;;26.83;;
12212;SDS011;6169;44.158;22.788;2022-12-10T21:57:02;37.40;;;24.30;;
12212;SDS011;6169;44.158;22.788;2022-12-10T22:02:05;31.77;;;20.65;;
12212;SDS011;6169;44.158;22.788;2022-12-10T22:07:08;32.53;;;22.83;;
12212;SDS011;6169;44.158;22.788;2022-12-10T22:12:11;49.15;;;36.42;;
12212;SDS011;6169;44.158;22.788;2022-12-10T22:17:13;37.42;;;24.83;;
12212;SDS011;6169;44.158;22.788;2022-12-10T22:22:16;35.53;;;24.08;;
12212;SDS011;6169;44.158;22.788;2022-12-10T22:27:19;34.85;;;22.42;;
12212;SDS011;6169;44.158;22.788;2022-12-10T22:32:21;29.60;;;18.00;;
12212;SDS011;6169;44.158;22.788;2022-12-10T22:37:24;31.70;;;21.48;;
12212;SDS011;6169;44.158;22.788;2022-12-10T22:42:27;36.22;;;27.27;;
12212;SDS011;6169;44.158;22.788;2022-12-10T22:47:29;29.58;;;19.20;;
12212;SDS011;6169;44.158;22.788;2022-12-10T22:52:33;29.65;;;19.30;;
12212;SDS011;6169;44.158;22.788;2022-12-10T22:57:35;29.63;;;18.90;;
12212;SDS011;6169;44.158;22.788;2022-12-10T23:02:37;30.42;;;19.30;;
12212;SDS011;6169;44.158;22.788;2022-12-10T23:07:41;32.45;;;19.55;;
12212;SDS011;6169;44.158;22.788;2022-12-10T23:12:44;31.90;;;20.30;;
12212;SDS011;6169;44.158;22.788;2022-12-10T23:18:04;31.60;;;19.65;;
12212;SDS011;6169;44.158;22.788;2022-12-10T23:23:09;28.73;;;19.17;;
12212;SDS011;6169;44.158;22.788;2022-12-10T23:28:11;29.17;;;18.42;;
12212;SDS011;6169;44.158;22.788;2022-12-10T23:33:15;28.33;;;17.67;;
12212;SDS011;6169;44.158;22.788;2022-12-10T23:38:18;25.00;;;16.17;;
12212;SDS011;6169;44.158;22.788;2022-12-10T23:43:21;20.13;;;13.75;;
12212;SDS011;6169;44.158;22.788;2022-12-10T23:48:23;18.92;;;13.02;;
12212;SDS011;6169;44.158;22.788;2022-12-10T23:53:26;20.40;;;13.15;;
12212;SDS011;6169;44.158;22.788;2022-12-10T23:58:29;18.85;;;13.30;;
